CAL5138 RCTP-KLAX
Flight info
| Callsign | CAL5138 |
|---|---|
| Flight time | N/A |
| Altitude | 29000 |
| Route | MOLKA1C MOLKA M750 MUKEP Y891 OVSUN/N0496F300 Y893 IGMIS/N0493F290 Y57 POROT/N0494F310 OTR11 AVBET OTR9 EMRON DCT 40N160E 43N170E 45N180E/N0487F330 45N170W 45N160W 45N150W 45N140W 41N130W/N0473F350 DCT FATMO DCT PAINT DCT PIRAT DCT BURGL IRNMN2 |
| Aircraft | B77L/H-SDE1E2E3FGHIJ2J3J4J5M1RWXY/LB1D1 |
Departure
| Time | 2026-05-05 14:46 |
|---|---|
| Airport | Taiwan Taoyuan International Airport (RCTP) |
Arrival
| Time | N/A |
|---|---|
| Airport | Los Angeles International Airport (KLAX) |
| Time | Latitude | Longitude | Altitude | Speed | Heading |
|---|---|---|---|---|---|
| 2026-05-05 14:09 | 25.09184 | 121.24525 | 105 ft | 0 kts | 139° |
| 2026-05-05 14:30 | 25.09185 | 121.24524 | 105 ft | 1 kts | 139° |
| 2026-05-05 14:30 | 25.09197 | 121.24512 | 104 ft | 3 kts | 139° |
| 2026-05-05 14:31 | 25.09213 | 121.24497 | 104 ft | 3 kts | 139° |
| 2026-05-05 14:31 | 25.09228 | 121.24483 | 104 ft | 3 kts | 139° |
| 2026-05-05 14:31 | 25.09243 | 121.24469 | 104 ft | 3 kts | 141° |
| 2026-05-05 14:31 | 25.09258 | 121.24458 | 105 ft | 3 kts | 166° |
| 2026-05-05 14:32 | 25.09273 | 121.24456 | 103 ft | 3 kts | 197° |
| 2026-05-05 14:32 | 25.09287 | 121.24462 | 103 ft | 2 kts | 227° |
| 2026-05-05 14:32 | 25.09294 | 121.24472 | 103 ft | 3 kts | 229° |
| 2026-05-05 14:32 | 25.09305 | 121.24485 | 103 ft | 1 kts | 229° |
| 2026-05-05 14:33 | 25.09306 | 121.24486 | 103 ft | 0 kts | 229° |
| 2026-05-05 14:35 | 25.09297 | 121.24475 | 103 ft | 10 kts | 230° |
| 2026-05-05 14:35 | 25.09237 | 121.24398 | 105 ft | 14 kts | 229° |
| 2026-05-05 14:35 | 25.09175 | 121.24319 | 107 ft | 14 kts | 229° |
| 2026-05-05 14:35 | 25.09112 | 121.24239 | 106 ft | 14 kts | 229° |
| 2026-05-05 14:36 | 25.09047 | 121.24157 | 106 ft | 14 kts | 230° |
| 2026-05-05 14:36 | 25.08982 | 121.24073 | 106 ft | 14 kts | 229° |
| 2026-05-05 14:36 | 25.08917 | 121.23990 | 107 ft | 14 kts | 229° |
| 2026-05-05 14:36 | 25.08852 | 121.23907 | 105 ft | 14 kts | 229° |
| 2026-05-05 14:37 | 25.08787 | 121.23824 | 107 ft | 14 kts | 229° |
| 2026-05-05 14:37 | 25.08722 | 121.23742 | 107 ft | 14 kts | 229° |
| 2026-05-05 14:37 | 25.08678 | 121.23687 | 106 ft | 14 kts | 229° |
| 2026-05-05 14:37 | 25.08592 | 121.23576 | 107 ft | 14 kts | 229° |
| 2026-05-05 14:38 | 25.08526 | 121.23493 | 107 ft | 14 kts | 229° |
| 2026-05-05 14:38 | 25.08483 | 121.23438 | 106 ft | 15 kts | 229° |
| 2026-05-05 14:38 | 25.08401 | 121.23334 | 108 ft | 18 kts | 229° |
| 2026-05-05 14:38 | 25.08317 | 121.23227 | 108 ft | 18 kts | 229° |
| 2026-05-05 14:39 | 25.08233 | 121.23120 | 106 ft | 18 kts | 229° |
| 2026-05-05 14:39 | 25.08149 | 121.23013 | 105 ft | 18 kts | 229° |
| 2026-05-05 14:39 | 25.08065 | 121.22907 | 107 ft | 18 kts | 229° |
| 2026-05-05 14:39 | 25.07981 | 121.22800 | 105 ft | 18 kts | 230° |
| 2026-05-05 14:40 | 25.07898 | 121.22693 | 107 ft | 18 kts | 229° |
| 2026-05-05 14:40 | 25.07814 | 121.22586 | 107 ft | 18 kts | 229° |
| 2026-05-05 14:40 | 25.07730 | 121.22480 | 106 ft | 18 kts | 229° |
| 2026-05-05 14:40 | 25.07646 | 121.22373 | 107 ft | 18 kts | 229° |
| 2026-05-05 14:41 | 25.07563 | 121.22266 | 107 ft | 18 kts | 229° |
| 2026-05-05 14:41 | 25.07479 | 121.22160 | 106 ft | 18 kts | 229° |
| 2026-05-05 14:41 | 25.07395 | 121.22053 | 107 ft | 18 kts | 229° |
| 2026-05-05 14:41 | 25.07311 | 121.21946 | 105 ft | 18 kts | 229° |
| 2026-05-05 14:42 | 25.07227 | 121.21840 | 107 ft | 18 kts | 229° |
| 2026-05-05 14:42 | 25.07181 | 121.21783 | 106 ft | 3 kts | 229° |
| 2026-05-05 14:42 | 25.07176 | 121.21765 | 106 ft | 3 kts | 266° |
| 2026-05-05 14:42 | 25.07197 | 121.21724 | 107 ft | 7 kts | 308° |
| 2026-05-05 14:43 | 25.07219 | 121.21699 | 107 ft | 0 kts | 317° |
| 2026-05-05 14:44 | 25.07242 | 121.21675 | 107 ft | 7 kts | 317° |
| 2026-05-05 14:44 | 25.07253 | 121.21664 | 106 ft | 6 kts | 318° |
| 2026-05-05 14:44 | 25.07319 | 121.21645 | 107 ft | 11 kts | 19° |
| 2026-05-05 14:45 | 25.07368 | 121.21696 | 107 ft | 0 kts | 50° |
| 2026-05-05 14:45 | 25.07463 | 121.21819 | 106 ft | 53 kts | 49° |
| 2026-05-05 14:45 | 25.07882 | 121.22351 | 106 ft | 129 kts | 49° |
| 2026-05-05 14:46 | 25.08622 | 121.23298 | 105 ft | 195 kts | 50° |
| 2026-05-05 14:46 | 25.09506 | 121.24510 | 529 ft | 204 kts | 51° |
| 2026-05-05 14:46 | 25.10465 | 121.25734 | 1020 ft | 217 kts | 49° |
| 2026-05-05 14:46 | 25.11481 | 121.26987 | 1690 ft | 220 kts | 49° |
| 2026-05-05 14:47 | 25.12517 | 121.28271 | 2157 ft | 232 kts | 50° |
| 2026-05-05 14:47 | 25.13612 | 121.29656 | 2432 ft | 247 kts | 50° |
| 2026-05-05 14:47 | 25.14743 | 121.31138 | 2772 ft | 259 kts | 50° |
| 2026-05-05 14:47 | 25.15944 | 121.32691 | 3087 ft | 270 kts | 50° |
| 2026-05-05 14:48 | 25.17176 | 121.34281 | 3661 ft | 275 kts | 50° |
| 2026-05-05 14:48 | 25.18430 | 121.35914 | 4193 ft | 282 kts | 50° |
| 2026-05-05 14:48 | 25.19709 | 121.37582 | 4814 ft | 286 kts | 50° |
| 2026-05-05 14:48 | 25.21005 | 121.39270 | 5392 ft | 293 kts | 50° |
| 2026-05-05 14:49 | 25.22339 | 121.41010 | 5917 ft | 299 kts | 49° |
| 2026-05-05 14:49 | 25.23686 | 121.42763 | 6526 ft | 302 kts | 49° |
| 2026-05-05 14:49 | 25.25054 | 121.44544 | 7078 ft | 305 kts | 49° |
| 2026-05-05 14:49 | 25.26444 | 121.46352 | 7500 ft | 313 kts | 48° |
| 2026-05-05 14:50 | 25.27860 | 121.48197 | 8003 ft | 315 kts | 49° |
| 2026-05-05 14:50 | 25.28983 | 121.50272 | 8385 ft | 321 kts | 75° |
| 2026-05-05 14:50 | 25.29131 | 121.52731 | 8776 ft | 322 kts | 102° |
| 2026-05-05 14:50 | 25.28894 | 121.55184 | 9176 ft | 326 kts | 85° |
| 2026-05-05 14:51 | 25.29440 | 121.57643 | 9552 ft | 333 kts | 66° |
| 2026-05-05 14:51 | 25.30521 | 121.59900 | 10081 ft | 333 kts | 57° |
| 2026-05-05 14:51 | 25.31783 | 121.62097 | 10332 ft | 347 kts | 55° |
| 2026-05-05 14:51 | 25.33141 | 121.64380 | 10474 ft | 364 kts | 55° |
| 2026-05-05 14:52 | 25.34569 | 121.66772 | 10623 ft | 382 kts | 55° |
| 2026-05-05 14:52 | 25.36056 | 121.69280 | 10846 ft | 396 kts | 55° |
| 2026-05-05 14:52 | 25.37575 | 121.71866 | 11197 ft | 406 kts | 56° |
| 2026-05-05 14:52 | 25.39121 | 121.74520 | 11597 ft | 415 kts | 56° |
| 2026-05-05 14:53 | 25.40694 | 121.77235 | 12016 ft | 422 kts | 56° |
| 2026-05-05 14:53 | 25.42283 | 121.79990 | 12576 ft | 426 kts | 56° |
| 2026-05-05 14:53 | 25.43880 | 121.82765 | 13147 ft | 429 kts | 56° |
| 2026-05-05 14:53 | 25.45491 | 121.85568 | 13696 ft | 434 kts | 56° |
| 2026-05-05 14:54 | 25.47116 | 121.88398 | 14159 ft | 438 kts | 56° |
| 2026-05-05 14:54 | 25.48757 | 121.91256 | 14651 ft | 441 kts | 56° |
| 2026-05-05 14:54 | 25.50404 | 121.94128 | 15165 ft | 443 kts | 57° |
| 2026-05-05 14:54 | 25.52058 | 121.97014 | 15680 ft | 446 kts | 57° |
| 2026-05-05 14:55 | 25.53726 | 121.99925 | 16158 ft | 449 kts | 57° |
| 2026-05-05 14:55 | 25.55403 | 122.02853 | 16633 ft | 452 kts | 57° |
| 2026-05-05 14:55 | 25.57089 | 122.05799 | 17071 ft | 455 kts | 57° |
| 2026-05-05 14:55 | 25.58792 | 122.08777 | 17504 ft | 459 kts | 58° |
| 2026-05-05 14:56 | 25.60509 | 122.11780 | 17929 ft | 463 kts | 58° |
| 2026-05-05 14:56 | 25.62236 | 122.14802 | 18352 ft | 467 kts | 58° |
| 2026-05-05 14:56 | 25.63978 | 122.17854 | 18702 ft | 470 kts | 58° |
| 2026-05-05 14:56 | 25.65734 | 122.20932 | 19049 ft | 474 kts | 58° |
| 2026-05-05 14:57 | 25.67500 | 122.24029 | 19420 ft | 477 kts | 58° |
| 2026-05-05 14:57 | 25.69275 | 122.27143 | 19804 ft | 479 kts | 58° |
| 2026-05-05 14:57 | 25.71056 | 122.30271 | 20182 ft | 481 kts | 58° |
| 2026-05-05 14:57 | 25.72849 | 122.33422 | 20539 ft | 484 kts | 58° |
| 2026-05-05 14:58 | 25.74651 | 122.36591 | 20891 ft | 487 kts | 58° |
| 2026-05-05 14:58 | 25.76461 | 122.39776 | 21260 ft | 489 kts | 58° |
| 2026-05-05 14:58 | 25.78280 | 122.42979 | 21617 ft | 492 kts | 58° |
| 2026-05-05 14:58 | 25.80110 | 122.46203 | 21952 ft | 495 kts | 58° |
| 2026-05-05 14:59 | 25.81950 | 122.49449 | 22261 ft | 499 kts | 58° |
| 2026-05-05 14:59 | 25.83803 | 122.52718 | 22565 ft | 502 kts | 58° |
| 2026-05-05 14:59 | 25.85664 | 122.56004 | 22892 ft | 505 kts | 58° |
| 2026-05-05 14:59 | 25.87541 | 122.59321 | 23224 ft | 508 kts | 58° |
| 2026-05-05 15:00 | 25.89424 | 122.62653 | 23558 ft | 510 kts | 58° |
| 2026-05-05 15:00 | 25.90676 | 122.64867 | 23728 ft | 512 kts | 58° |
| 2026-05-05 15:00 | 25.93216 | 122.69365 | 24075 ft | 516 kts | 58° |
| 2026-05-05 15:00 | 25.95125 | 122.72749 | 24342 ft | 518 kts | 58° |
| 2026-05-05 15:01 | 25.97039 | 122.76143 | 24624 ft | 520 kts | 58° |
| 2026-05-05 15:01 | 25.98965 | 122.79561 | 24897 ft | 522 kts | 58° |
| 2026-05-05 15:01 | 26.00892 | 122.82984 | 25186 ft | 524 kts | 58° |
| 2026-05-05 15:01 | 26.02827 | 122.86423 | 25463 ft | 526 kts | 58° |
| 2026-05-05 15:02 | 26.04772 | 122.89884 | 25726 ft | 528 kts | 58° |
| 2026-05-05 15:02 | 26.06720 | 122.93351 | 25994 ft | 531 kts | 58° |
| 2026-05-05 15:02 | 26.08681 | 122.96846 | 26254 ft | 533 kts | 58° |
| 2026-05-05 15:02 | 26.10649 | 123.00355 | 26501 ft | 536 kts | 58° |
| 2026-05-05 15:03 | 26.12627 | 123.03883 | 26738 ft | 539 kts | 58° |
| 2026-05-05 15:03 | 26.14611 | 123.07427 | 26990 ft | 541 kts | 58° |
| 2026-05-05 15:03 | 26.16605 | 123.10991 | 27242 ft | 543 kts | 58° |
| 2026-05-05 15:03 | 26.18579 | 123.14520 | 27508 ft | 545 kts | 58° |
| 2026-05-05 15:04 | 26.20584 | 123.18110 | 27778 ft | 547 kts | 58° |
| 2026-05-05 15:04 | 26.22594 | 123.21711 | 28043 ft | 549 kts | 58° |
| 2026-05-05 15:04 | 26.24613 | 123.25330 | 28300 ft | 550 kts | 58° |
| 2026-05-05 15:04 | 26.26634 | 123.28955 | 28569 ft | 552 kts | 58° |
| 2026-05-05 15:05 | 26.30692 | 123.36246 | 29005 ft | 556 kts | 58° |
| 2026-05-05 15:05 | 26.32736 | 123.39921 | 29040 ft | 558 kts | 58° |
| 2026-05-05 15:06 | 26.36805 | 123.47249 | 29061 ft | 553 kts | 58° |
| 2026-05-05 15:06 | 26.40845 | 123.54536 | 29086 ft | 552 kts | 58° |
| 2026-05-05 15:07 | 26.44881 | 123.61827 | 29087 ft | 552 kts | 59° |
| 2026-05-05 15:07 | 26.48913 | 123.69124 | 29071 ft | 552 kts | 59° |
| 2026-05-05 15:08 | 26.52942 | 123.76427 | 29069 ft | 553 kts | 59° |
| 2026-05-05 15:08 | 26.56968 | 123.83736 | 29075 ft | 553 kts | 59° |
| 2026-05-05 15:09 | 26.60992 | 123.91056 | 29080 ft | 553 kts | 60° |
| 2026-05-05 15:09 | 26.65021 | 123.98374 | 29077 ft | 553 kts | 58° |
| 2026-05-05 15:10 | 26.69642 | 124.05237 | 29103 ft | 553 kts | 50° |
| 2026-05-05 15:10 | 26.74678 | 124.11841 | 29084 ft | 554 kts | 50° |
| 2026-05-05 15:11 | 26.79654 | 124.18429 | 29083 ft | 554 kts | 51° |
| 2026-05-05 15:11 | 26.84588 | 124.25062 | 29092 ft | 555 kts | 51° |
| 2026-05-05 15:12 | 26.89519 | 124.31718 | 29086 ft | 555 kts | 51° |
| 2026-05-05 15:12 | 26.94419 | 124.38331 | 29089 ft | 555 kts | 51° |
| 2026-05-05 15:13 | 26.99354 | 124.44994 | 29093 ft | 556 kts | 51° |
| 2026-05-05 15:13 | 27.04338 | 124.51710 | 29095 ft | 557 kts | 51° |
| 2026-05-05 15:14 | 27.09298 | 124.58398 | 29096 ft | 558 kts | 51° |
| 2026-05-05 15:14 | 27.14266 | 124.65112 | 29096 ft | 560 kts | 51° |
| 2026-05-05 15:15 | 27.19241 | 124.71849 | 29101 ft | 561 kts | 51° |
| 2026-05-05 15:15 | 27.24223 | 124.78605 | 29095 ft | 562 kts | 51° |
| 2026-05-05 15:16 | 27.29208 | 124.85376 | 29093 ft | 563 kts | 51° |
| 2026-05-05 15:16 | 27.34206 | 124.92176 | 29096 ft | 564 kts | 51° |
| 2026-05-05 15:17 | 27.39206 | 124.98987 | 29102 ft | 565 kts | 51° |
| 2026-05-05 15:17 | 27.44231 | 125.05799 | 29099 ft | 566 kts | 50° |
| 2026-05-05 15:18 | 27.49279 | 125.12598 | 29098 ft | 566 kts | 50° |
| 2026-05-05 15:18 | 27.54331 | 125.19412 | 29100 ft | 567 kts | 50° |
| 2026-05-05 15:19 | 27.59383 | 125.26250 | 29088 ft | 568 kts | 50° |
| 2026-05-05 15:19 | 27.63581 | 125.31945 | 29089 ft | 568 kts | 50° |
| 2026-05-05 15:20 | 27.69458 | 125.39930 | 29093 ft | 569 kts | 50° |
| 2026-05-05 15:20 | 27.74514 | 125.46811 | 29103 ft | 570 kts | 50° |
| 2026-05-05 15:21 | 27.79577 | 125.53712 | 29087 ft | 571 kts | 51° |
| 2026-05-05 15:21 | 27.83820 | 125.59503 | 29107 ft | 571 kts | 51° |
| 2026-05-05 15:22 | 27.88886 | 125.66429 | 29098 ft | 572 kts | 51° |
| 2026-05-05 15:22 | 27.93951 | 125.73364 | 29094 ft | 572 kts | 51° |
| 2026-05-05 15:23 | 27.99013 | 125.80306 | 29103 ft | 572 kts | 51° |
| 2026-05-05 15:23 | 28.04076 | 125.87262 | 29098 ft | 572 kts | 51° |
| 2026-05-05 15:24 | 28.09134 | 125.94221 | 29099 ft | 573 kts | 51° |
| 2026-05-05 15:24 | 28.14192 | 126.01192 | 29101 ft | 573 kts | 51° |
| 2026-05-05 15:25 | 28.19249 | 126.08173 | 29102 ft | 573 kts | 51° |
| 2026-05-05 15:25 | 28.24306 | 126.15166 | 29102 ft | 574 kts | 51° |
| 2026-05-05 15:26 | 28.29366 | 126.22174 | 29100 ft | 575 kts | 51° |
| 2026-05-05 15:26 | 28.34427 | 126.29196 | 29102 ft | 575 kts | 51° |
| 2026-05-05 15:27 | 28.39496 | 126.36239 | 29102 ft | 576 kts | 51° |
| 2026-05-05 15:27 | 28.44561 | 126.43290 | 29100 ft | 576 kts | 51° |
| 2026-05-05 15:28 | 28.49627 | 126.50353 | 29103 ft | 577 kts | 51° |
| 2026-05-05 15:28 | 28.54692 | 126.57428 | 29103 ft | 577 kts | 51° |
| 2026-05-05 15:29 | 28.59755 | 126.64512 | 29093 ft | 577 kts | 51° |
| 2026-05-05 15:29 | 28.64825 | 126.71615 | 29107 ft | 578 kts | 51° |
| 2026-05-05 15:30 | 28.69893 | 126.78730 | 29106 ft | 579 kts | 51° |
| 2026-05-05 15:30 | 28.74966 | 126.85863 | 29099 ft | 580 kts | 51° |
| 2026-05-05 15:31 | 28.80042 | 126.93013 | 29099 ft | 581 kts | 51° |
| 2026-05-05 15:31 | 28.85124 | 127.00185 | 29103 ft | 581 kts | 51° |
| 2026-05-05 15:32 | 28.90202 | 127.07362 | 29102 ft | 582 kts | 51° |
| 2026-05-05 15:32 | 28.95284 | 127.14557 | 29102 ft | 582 kts | 51° |
| 2026-05-05 15:33 | 29.00361 | 127.21759 | 29105 ft | 582 kts | 51° |
| 2026-05-05 15:33 | 29.05468 | 127.29015 | 29101 ft | 582 kts | 51° |
| 2026-05-05 15:34 | 29.10537 | 127.36230 | 29109 ft | 582 kts | 51° |
| 2026-05-05 15:34 | 29.15601 | 127.43451 | 29104 ft | 582 kts | 51° |
| 2026-05-05 15:35 | 29.20663 | 127.50681 | 29110 ft | 582 kts | 51° |
| 2026-05-05 15:35 | 29.25716 | 127.57911 | 29106 ft | 582 kts | 51° |
| 2026-05-05 15:36 | 29.30772 | 127.65159 | 29115 ft | 582 kts | 51° |
| 2026-05-05 15:36 | 29.35827 | 127.72417 | 29112 ft | 583 kts | 51° |
| 2026-05-05 15:37 | 29.40882 | 127.79689 | 29116 ft | 583 kts | 51° |
| 2026-05-05 15:37 | 29.45938 | 127.86975 | 29115 ft | 584 kts | 51° |
| 2026-05-05 15:38 | 29.50997 | 127.94280 | 29122 ft | 585 kts | 51° |
| 2026-05-05 15:38 | 29.56060 | 128.01596 | 29121 ft | 585 kts | 51° |
| 2026-05-05 15:39 | 29.61128 | 128.08922 | 29124 ft | 586 kts | 51° |
| 2026-05-05 15:39 | 29.66197 | 128.16263 | 29124 ft | 587 kts | 51° |
| 2026-05-05 15:40 | 29.71270 | 128.23626 | 29116 ft | 587 kts | 51° |
| 2026-05-05 15:40 | 29.76341 | 128.31002 | 29124 ft | 588 kts | 51° |
| 2026-05-05 15:41 | 29.81409 | 128.38386 | 29119 ft | 588 kts | 51° |
| 2026-05-05 15:41 | 29.86478 | 128.45784 | 29125 ft | 588 kts | 51° |
| 2026-05-05 15:42 | 29.91541 | 128.53187 | 29123 ft | 588 kts | 51° |
| 2026-05-05 15:42 | 29.96598 | 128.60597 | 29126 ft | 588 kts | 51° |
| 2026-05-05 15:43 | 30.01652 | 128.68014 | 29123 ft | 588 kts | 51° |
| 2026-05-05 15:43 | 30.06699 | 128.75436 | 29128 ft | 588 kts | 51° |
| 2026-05-05 15:44 | 30.11739 | 128.82861 | 29125 ft | 587 kts | 51° |
| 2026-05-05 15:44 | 30.16776 | 128.90295 | 29126 ft | 587 kts | 51° |
| 2026-05-05 15:45 | 30.21806 | 128.97732 | 29128 ft | 587 kts | 51° |
| 2026-05-05 15:45 | 30.26834 | 129.05178 | 29127 ft | 587 kts | 51° |
| 2026-05-05 15:46 | 30.31856 | 129.12627 | 29126 ft | 588 kts | 51° |
| 2026-05-05 15:46 | 30.36881 | 129.20096 | 29120 ft | 588 kts | 51° |
| 2026-05-05 15:47 | 30.41849 | 129.27495 | 29125 ft | 588 kts | 51° |
| 2026-05-05 15:47 | 30.46928 | 129.35074 | 29123 ft | 589 kts | 51° |
| 2026-05-05 15:48 | 30.51943 | 129.42572 | 29121 ft | 589 kts | 51° |
| 2026-05-05 15:48 | 30.56963 | 129.50091 | 29120 ft | 589 kts | 51° |
| 2026-05-05 15:49 | 30.61973 | 129.57610 | 29122 ft | 589 kts | 51° |
| 2026-05-05 15:49 | 30.66980 | 129.65139 | 29121 ft | 589 kts | 51° |
| 2026-05-05 15:50 | 30.71984 | 129.72678 | 29121 ft | 589 kts | 51° |
| 2026-05-05 15:50 | 30.76982 | 129.80222 | 29122 ft | 589 kts | 51° |
| 2026-05-05 15:51 | 30.81971 | 129.87766 | 29123 ft | 588 kts | 51° |
| 2026-05-05 15:51 | 30.86722 | 129.95513 | 29124 ft | 588 kts | 57° |
| 2026-05-05 15:52 | 30.91001 | 130.03616 | 29123 ft | 588 kts | 58° |
| 2026-05-05 15:52 | 30.95235 | 130.11747 | 29125 ft | 587 kts | 58° |
| 2026-05-05 15:53 | 30.99506 | 130.19862 | 29124 ft | 587 kts | 58° |
| 2026-05-05 15:53 | 31.03794 | 130.27961 | 29125 ft | 587 kts | 58° |
| 2026-05-05 15:54 | 31.08088 | 130.36080 | 29132 ft | 588 kts | 58° |
| 2026-05-05 15:54 | 31.12370 | 130.44207 | 29133 ft | 588 kts | 58° |
| 2026-05-05 15:55 | 31.16616 | 130.52288 | 29137 ft | 589 kts | 58° |
| 2026-05-05 15:55 | 31.20932 | 130.60517 | 29130 ft | 590 kts | 58° |
| 2026-05-05 15:56 | 31.25214 | 130.68700 | 29144 ft | 591 kts | 58° |
| 2026-05-05 15:56 | 31.29497 | 130.76902 | 29142 ft | 591 kts | 58° |
| 2026-05-05 15:57 | 31.33780 | 130.85121 | 29145 ft | 592 kts | 58° |
| 2026-05-05 15:57 | 31.38056 | 130.93345 | 29152 ft | 591 kts | 58° |
| 2026-05-05 15:58 | 31.42322 | 131.01567 | 29165 ft | 591 kts | 58° |
| 2026-05-05 15:58 | 31.45896 | 131.08467 | 29157 ft | 591 kts | 58° |
| 2026-05-05 15:59 | 31.50846 | 131.18047 | 29167 ft | 592 kts | 58° |
| 2026-05-05 15:59 | 31.54412 | 131.24964 | 29179 ft | 592 kts | 58° |
| 2026-05-05 16:00 | 31.58672 | 131.33242 | 29168 ft | 593 kts | 58° |
| 2026-05-05 16:00 | 31.62933 | 131.41542 | 29168 ft | 594 kts | 58° |
| 2026-05-05 16:01 | 31.67191 | 131.49864 | 29147 ft | 594 kts | 58° |
| 2026-05-05 16:01 | 31.71431 | 131.58173 | 29164 ft | 593 kts | 58° |
| 2026-05-05 16:02 | 31.75660 | 131.66477 | 29180 ft | 592 kts | 58° |
| 2026-05-05 16:02 | 31.79878 | 131.74777 | 29174 ft | 592 kts | 58° |
| 2026-05-05 16:03 | 31.84092 | 131.83086 | 29179 ft | 591 kts | 58° |
| 2026-05-05 16:03 | 31.88298 | 131.91399 | 29182 ft | 591 kts | 58° |
| 2026-05-05 16:04 | 31.92498 | 131.99718 | 29182 ft | 591 kts | 58° |
| 2026-05-05 16:04 | 31.96692 | 132.08044 | 29182 ft | 591 kts | 58° |
| 2026-05-05 16:05 | 32.00872 | 132.16362 | 29185 ft | 590 kts | 58° |
| 2026-05-05 16:05 | 32.05048 | 132.24689 | 29176 ft | 590 kts | 58° |
| 2026-05-05 16:06 | 32.09213 | 132.33014 | 29180 ft | 589 kts | 58° |
| 2026-05-05 16:06 | 32.13312 | 132.41364 | 29180 ft | 588 kts | 61° |
| 2026-05-05 16:07 | 32.17005 | 132.49965 | 29181 ft | 587 kts | 63° |
| 2026-05-05 16:07 | 32.20600 | 132.58615 | 29179 ft | 586 kts | 63° |
| 2026-05-05 16:08 | 32.24209 | 132.67238 | 29188 ft | 585 kts | 63° |
| 2026-05-05 16:08 | 32.27837 | 132.75843 | 29184 ft | 585 kts | 63° |
| 2026-05-05 16:09 | 32.31461 | 132.84440 | 29182 ft | 584 kts | 63° |
| 2026-05-05 16:09 | 32.35077 | 132.93048 | 29184 ft | 584 kts | 63° |
| 2026-05-05 16:10 | 32.38681 | 133.01659 | 29190 ft | 584 kts | 63° |
| 2026-05-05 16:10 | 32.42282 | 133.10285 | 29189 ft | 585 kts | 63° |
| 2026-05-05 16:11 | 32.45883 | 133.18928 | 29193 ft | 585 kts | 63° |
| 2026-05-05 16:12 | 32.53064 | 133.36229 | 29191 ft | 585 kts | 63° |
| 2026-05-05 16:13 | 32.62051 | 133.57851 | 29188 ft | 584 kts | 63° |
| 2026-05-05 16:13 | 32.65630 | 133.66496 | 29188 ft | 583 kts | 64° |
| 2026-05-05 16:14 | 32.72680 | 133.83824 | 29194 ft | 582 kts | 64° |
| 2026-05-05 16:15 | 32.79710 | 134.01140 | 29194 ft | 582 kts | 64° |
| 2026-05-05 16:16 | 32.85271 | 134.19129 | 29205 ft | 580 kts | 76° |
| 2026-05-05 16:17 | 32.88604 | 134.32984 | 29206 ft | 581 kts | 75° |
| 2026-05-05 16:18 | 32.92042 | 134.46835 | 29208 ft | 583 kts | 75° |
| 2026-05-05 16:19 | 32.95475 | 134.60728 | 29207 ft | 584 kts | 75° |
| 2026-05-05 16:19 | 32.98888 | 134.74644 | 29209 ft | 584 kts | 75° |
| 2026-05-05 16:20 | 33.00680 | 134.84040 | 29211 ft | 579 kts | 86° |
| 2026-05-05 16:20 | 33.01636 | 134.93478 | 29213 ft | 578 kts | 87° |
| 2026-05-05 16:22 | 33.04187 | 135.17461 | 29214 ft | 587 kts | 85° |
| 2026-05-05 16:23 | 33.06233 | 135.36765 | 29210 ft | 586 kts | 85° |
| 2026-05-05 16:23 | 33.07740 | 135.51192 | 29218 ft | 584 kts | 86° |
| 2026-05-05 16:24 | 33.08734 | 135.60782 | 29223 ft | 582 kts | 86° |
| 2026-05-05 16:25 | 33.10204 | 135.75136 | 29209 ft | 580 kts | 86° |
| 2026-05-05 16:25 | 33.11651 | 135.89461 | 29226 ft | 580 kts | 86° |
| 2026-05-05 16:26 | 33.13557 | 136.08577 | 29227 ft | 581 kts | 86° |
| 2026-05-05 16:27 | 33.14501 | 136.18149 | 29226 ft | 581 kts | 86° |
| 2026-05-05 16:27 | 33.15436 | 136.27720 | 29232 ft | 581 kts | 86° |
| 2026-05-05 16:28 | 33.16365 | 136.37300 | 29232 ft | 581 kts | 86° |
| 2026-05-05 16:28 | 33.17286 | 136.46865 | 29232 ft | 581 kts | 86° |
| 2026-05-05 16:29 | 33.18202 | 136.56435 | 29233 ft | 580 kts | 86° |
| 2026-05-05 16:29 | 33.19117 | 136.65999 | 29230 ft | 580 kts | 86° |
| 2026-05-05 16:30 | 33.20024 | 136.75557 | 29236 ft | 579 kts | 86° |
| 2026-05-05 16:30 | 33.20916 | 136.85038 | 29231 ft | 578 kts | 86° |
| 2026-05-05 16:31 | 33.21806 | 136.94582 | 29236 ft | 578 kts | 86° |
| 2026-05-05 16:31 | 33.22689 | 137.04121 | 29233 ft | 578 kts | 86° |
| 2026-05-05 16:32 | 33.24035 | 137.13581 | 29228 ft | 580 kts | 76° |
| 2026-05-05 16:32 | 33.26379 | 137.22799 | 29240 ft | 580 kts | 73° |
| 2026-05-05 16:33 | 33.28769 | 137.32009 | 29234 ft | 580 kts | 73° |
| 2026-05-05 16:33 | 33.31089 | 137.41248 | 29241 ft | 580 kts | 74° |
| 2026-05-05 16:34 | 33.33389 | 137.50570 | 29236 ft | 580 kts | 74° |
| 2026-05-05 16:34 | 33.35669 | 137.59833 | 29239 ft | 580 kts | 74° |
| 2026-05-05 16:35 | 33.37947 | 137.69093 | 29236 ft | 580 kts | 74° |
| 2026-05-05 16:35 | 33.40218 | 137.78357 | 29241 ft | 580 kts | 75° |
| 2026-05-05 16:36 | 33.42565 | 137.87592 | 29233 ft | 580 kts | 70° |
| 2026-05-05 16:36 | 33.45226 | 137.94951 | 29241 ft | 579 kts | 62° |
| 2026-05-05 16:37 | 33.49418 | 138.03154 | 29243 ft | 577 kts | 55° |
| 2026-05-05 16:37 | 33.53732 | 138.11262 | 29247 ft | 577 kts | 57° |
| 2026-05-05 16:38 | 33.57923 | 138.19462 | 29243 ft | 577 kts | 57° |
| 2026-05-05 16:38 | 33.62100 | 138.27686 | 29247 ft | 577 kts | 57° |
| 2026-05-05 16:39 | 33.66284 | 138.35903 | 29248 ft | 577 kts | 57° |
| 2026-05-05 16:39 | 33.70469 | 138.44129 | 29252 ft | 577 kts | 57° |
| 2026-05-05 16:40 | 33.74648 | 138.52363 | 29253 ft | 577 kts | 57° |
| 2026-05-05 16:40 | 33.78820 | 138.60599 | 29257 ft | 577 kts | 57° |
| 2026-05-05 16:41 | 33.82988 | 138.68844 | 29257 ft | 577 kts | 57° |
| 2026-05-05 16:41 | 33.87151 | 138.77100 | 29261 ft | 577 kts | 57° |
| 2026-05-05 16:42 | 33.91310 | 138.85368 | 29264 ft | 577 kts | 57° |